Time;durP1;ratioP1;P1;durP2;ratioP2;P2;SDS_P1;SDS_P2;PMS_P1;PMS_P2;Temp;Humidity;BMP_temperature;BMP_pressure;BME280_temperature;BME280_humidity;BME280_pressure;Samples;Min_cycle;Max_cycle;Signal;HPM_P1;HPM_P2
2021/09/16 00:01:44;;;;;;;2.90;2.23;;;;;;;17.52;100.00;155863.59;5036917;28;20446;-74
2021/09/16 00:04:21;;;;;;;2.93;2.23;;;;;;;17.51;100.00;155860.97;5048866;28;20447;-74
2021/09/16 00:06:57;;;;;;;2.97;2.17;;;;;;;17.50;100.00;155858.38;5042738;28;20887;-74
2021/09/16 00:09:32;;;;;;;4.37;2.47;;;;;;;17.54;100.00;155868.84;5036256;28;20455;-74
2021/09/16 00:12:08;;;;;;;2.23;1.90;;;;;;;17.53;100.00;155866.22;5030342;28;20483;-74
2021/09/16 00:14:44;;;;;;;2.83;2.00;;;;;;;17.54;100.00;155870.16;5028512;28;20452;-74
2021/09/16 00:17:19;;;;;;;3.03;2.40;;;;;;;17.53;100.00;155866.22;5040221;28;20472;-74
2021/09/16 00:19:56;;;;;;;2.00;1.70;;;;;;;17.55;100.00;155871.47;5039296;28;20468;-74
2021/09/16 00:22:32;;;;;;;2.67;1.80;;;;;;;17.55;100.00;155871.47;5029388;28;20428;-74
2021/09/16 00:25:08;;;;;;;2.90;1.60;;;;;;;17.57;100.00;155876.66;5029178;28;20456;-74
2021/09/16 00:27:44;;;;;;;2.10;1.60;;;;;;;17.53;100.00;155867.53;5048997;28;20529;-74
2021/09/16 00:30:19;;;;;;;1.90;1.70;;;;;;;17.53;100.00;155867.53;5027629;28;20446;-74
2021/09/16 00:32:55;;;;;;;3.43;1.80;;;;;;;17.53;100.00;155866.22;5052981;28;20557;-74
2021/09/16 00:35:32;;;;;;;2.30;1.80;;;;;;;17.52;100.00;155863.59;5043317;28;20808;-74
2021/09/16 00:38:07;;;;;;;1.60;1.50;;;;;;;17.56;100.00;155875.34;5051533;28;20917;-74
2021/09/16 00:40:43;;;;;;;2.57;1.70;;;;;;;17.53;100.00;155867.53;5041634;28;20447;-74
2021/09/16 00:43:18;;;;;;;2.07;1.70;;;;;;;17.54;100.00;155868.84;5041055;28;20434;-74
2021/09/16 00:46:02;;;;;;;3.60;1.30;;;;;;;17.55;100.00;155871.47;5034323;28;20420;-74
2021/09/16 00:48:38;;;;;;;2.23;1.70;;;;;;;17.56;100.00;155874.03;5045558;28;20800;-74
2021/09/16 00:51:14;;;;;;;2.17;1.60;;;;;;;17.58;100.00;155879.22;5033672;28;20439;-74
2021/09/16 00:53:50;;;;;;;2.80;2.03;;;;;;;17.57;100.00;155876.66;5045692;28;20439;-74
2021/09/16 00:56:26;;;;;;;3.33;2.00;;;;;;;17.54;100.00;155868.84;5051810;28;20605;-74
2021/09/16 00:59:03;;;;;;;2.53;1.70;;;;;;;17.53;100.00;155866.22;5052499;28;20450;-74
2021/09/16 01:01:38;;;;;;;3.20;1.40;;;;;;;17.52;100.00;155864.91;5052352;28;20944;-74
2021/09/16 01:04:14;;;;;;;1.87;1.53;;;;;;;17.53;100.00;155867.53;5053973;28;20443;-74
2021/09/16 01:06:51;;;;;;;2.10;1.70;;;;;;;17.53;100.00;155866.22;5052627;28;20439;-74
2021/09/16 01:09:26;;;;;;;1.73;1.40;;;;;;;17.54;100.00;155868.84;5050019;28;20781;-74
2021/09/16 01:12:02;;;;;;;2.80;1.93;;;;;;;17.52;100.00;155863.59;5051335;28;20976;-74
2021/09/16 01:14:37;;;;;;;2.17;1.70;;;;;;;17.52;100.00;155863.59;5052026;28;20805;-74
2021/09/16 01:17:13;;;;;;;1.60;1.13;;;;;;;17.53;100.00;155866.22;5048892;28;20443;-74
2021/09/16 01:19:49;;;;;;;3.27;1.80;;;;;;;17.52;100.00;155864.91;5049585;28;20454;-74
2021/09/16 01:22:26;;;;;;;1.60;1.30;;;;;;;17.55;100.00;155871.47;5045559;28;20444;-74
2021/09/16 01:25:04;;;;;;;2.80;1.63;;;;;;;17.57;100.00;155876.66;5032648;28;20452;-74
2021/09/16 01:27:39;;;;;;;3.10;2.00;;;;;;;17.54;100.00;155870.16;5044943;28;20439;-74
2021/09/16 01:30:15;;;;;;;2.70;1.63;;;;;;;17.56;100.00;155874.03;5037073;28;20455;-74
2021/09/16 01:32:51;;;;;;;1.60;1.40;;;;;;;17.55;100.00;155871.47;5045715;28;20462;-74
2021/09/16 01:35:27;;;;;;;2.17;1.93;;;;;;;17.55;100.00;155871.47;5032436;28;20502;-74
2021/09/16 01:38:03;;;;;;;2.50;1.50;;;;;;;17.56;100.00;155874.03;5048779;28;20440;-74
2021/09/16 01:40:40;;;;;;;1.77;1.30;;;;;;;17.54;100.00;155868.84;5031161;28;20810;-75
2021/09/16 01:43:15;;;;;;;5.10;1.50;;;;;;;17.50;100.00;155858.38;5044216;28;20517;-75
2021/09/16 01:45:51;;;;;;;1.90;1.40;;;;;;;17.49;100.00;155855.78;5033080;28;20424;-74
2021/09/16 01:48:26;;;;;;;1.57;1.30;;;;;;;17.44;100.00;155844.06;5038511;28;20438;-74
2021/09/16 01:51:02;;;;;;;2.17;1.73;;;;;;;17.45;100.00;155846.63;5051126;28;20941;-74
2021/09/16 01:53:38;;;;;;;1.80;1.27;;;;;;;17.46;100.00;155849.25;5045415;28;20466;-74
2021/09/16 01:56:15;;;;;;;2.20;1.50;;;;;;;17.46;100.00;155847.94;5052991;28;20421;-74
2021/09/16 01:58:50;;;;;;;1.70;1.50;;;;;;;17.47;100.00;155850.56;5047122;28;20469;-74
2021/09/16 02:01:26;;;;;;;1.90;1.50;;;;;;;17.45;100.00;155846.63;5051051;28;20447;-74
2021/09/16 02:04:01;;;;;;;3.13;1.90;;;;;;;17.44;100.00;155844.06;5049888;28;20482;-74
2021/09/16 02:06:37;;;;;;;2.40;1.73;;;;;;;17.44;100.00;155842.75;5052562;28;20777;-74
2021/09/16 02:09:12;;;;;;;1.90;1.50;;;;;;;17.41;100.00;155834.94;5052019;28;20863;-74
2021/09/16 02:11:50;;;;;;;1.50;1.40;;;;;;;17.40;100.00;155832.31;5051022;28;20838;-74
2021/09/16 02:14:25;;;;;;;2.73;2.00;;;;;;;17.39;100.00;155829.75;5049895;28;20455;-74
2021/09/16 02:17:00;;;;;;;1.73;1.47;;;;;;;17.41;100.00;155834.94;5031546;28;20810;-74
2021/09/16 02:19:36;;;;;;;2.60;1.53;;;;;;;17.41;100.00;155834.94;5050200;28;20812;-74
2021/09/16 02:22:12;;;;;;;2.23;2.03;;;;;;;17.41;100.00;155834.94;5051321;28;20455;-74
2021/09/16 02:24:47;;;;;;;2.10;1.57;;;;;;;17.41;100.00;155836.25;5050496;28;20446;-75
2021/09/16 02:27:24;;;;;;;4.90;1.97;;;;;;;17.40;100.00;155832.31;5032448;28;20519;-74
2021/09/16 02:29:59;;;;;;;1.40;1.20;;;;;;;17.38;100.00;155827.13;5041782;28;20538;-74
2021/09/16 02:32:35;;;;;;;2.23;1.50;;;;;;;17.37;100.00;155825.81;5036525;28;20462;-74
2021/09/16 02:35:11;;;;;;;1.80;1.70;;;;;;;17.38;100.00;155828.44;5049047;28;20459;-74
2021/09/16 02:37:46;;;;;;;1.90;1.70;;;;;;;17.39;100.00;155831.06;5052065;28;20415;-74
2021/09/16 02:40:21;;;;;;;2.10;1.60;;;;;;;17.39;100.00;155829.75;5051879;28;20446;-74
2021/09/16 02:42:58;;;;;;;2.00;1.40;;;;;;;17.39;100.00;155831.06;5051206;28;20435;-74
2021/09/16 02:45:33;;;;;;;1.70;1.50;;;;;;;17.39;100.00;155831.06;5048075;28;20451;-74
2021/09/16 02:48:09;;;;;;;4.40;1.43;;;;;;;17.38;100.00;155827.13;5052090;28;20420;-74
2021/09/16 02:50:44;;;;;;;2.40;1.30;;;;;;;17.42;100.00;155837.56;5050605;28;20435;-74
2021/09/16 02:53:20;;;;;;;1.90;1.70;;;;;;;17.42;100.00;155837.56;5048728;28;21024;-74
2021/09/16 02:55:55;;;;;;;7.20;1.90;;;;;;;17.43;100.00;155840.13;5047244;28;20435;-74
2021/09/16 02:58:32;;;;;;;2.70;1.80;;;;;;;17.40;100.00;155833.63;5043531;28;20637;-74
2021/09/16 03:01:09;;;;;;;1.73;1.47;;;;;;;17.39;100.00;155831.06;5050171;28;20446;-74
2021/09/16 03:03:44;;;;;;;3.37;1.93;;;;;;;17.36;100.00;155821.94;5048948;28;20451;-74
2021/09/16 03:06:20;;;;;;;2.00;1.50;;;;;;;17.34;100.00;155818.00;5049528;28;20801;-74
2021/09/16 03:08:55;;;;;;;1.83;1.60;;;;;;;17.34;100.00;155818.00;5041675;28;20451;-74
2021/09/16 03:11:31;;;;;;;2.30;2.03;;;;;;;17.33;100.00;155815.44;5039352;28;20440;-74
2021/09/16 03:14:08;;;;;;;2.23;1.73;;;;;;;17.31;100.00;155810.22;5050344;28;20483;-74
2021/09/16 03:16:43;;;;;;;1.90;1.70;;;;;;;17.35;100.00;155820.63;5044473;28;20446;-74
2021/09/16 03:19:19;;;;;;;2.20;1.50;;;;;;;17.37;100.00;155824.50;5030043;28;20443;-74
2021/09/16 03:21:54;;;;;;;1.77;1.63;;;;;;;17.35;100.00;155820.63;5030160;28;20470;-74
2021/09/16 03:24:30;;;;;;;1.90;1.50;;;;;;;17.38;100.00;155827.13;5049698;28;20442;-74
2021/09/16 03:27:06;;;;;;;3.10;1.80;;;;;;;17.36;100.00;155823.25;5049721;28;20850;-74
2021/09/16 03:29:43;;;;;;;3.43;1.47;;;;;;;17.35;100.00;155819.31;5049650;28;20949;-74
2021/09/16 03:32:18;;;;;;;3.13;1.67;;;;;;;17.36;100.00;155823.25;5049317;28;20742;-74
2021/09/16 03:34:54;;;;;;;2.17;1.67;;;;;;;17.35;100.00;155819.31;5031835;28;20476;-74
2021/09/16 03:37:29;;;;;;;2.40;1.43;;;;;;;17.34;100.00;155816.72;5029845;28;20448;-74
2021/09/16 03:40:06;;;;;;;4.10;1.77;;;;;;;17.36;100.00;155821.94;5031083;28;20443;-74
2021/09/16 03:42:42;;;;;;;3.03;1.83;;;;;;;17.35;100.00;155819.31;5034233;28;21004;-74
2021/09/16 03:45:19;;;;;;;1.43;1.30;;;;;;;17.36;100.00;155821.94;5030006;28;20463;-74
2021/09/16 03:47:55;;;;;;;3.70;1.80;;;;;;;17.36;100.00;155821.94;5046745;28;20848;-74
2021/09/16 03:50:30;;;;;;;2.60;1.87;;;;;;;17.35;100.00;155819.31;5048498;28;20450;-75
2021/09/16 03:53:06;;;;;;;2.40;1.93;;;;;;;17.32;100.00;155811.50;5051104;28;20925;-74
2021/09/16 03:55:42;;;;;;;2.30;1.97;;;;;;;17.29;100.00;155803.72;5047492;28;20801;-74
2021/09/16 03:58:17;;;;;;;2.43;1.60;;;;;;;17.26;100.00;155795.91;5039412;28;20504;-74
2021/09/16 04:00:54;;;;;;;3.10;2.10;;;;;;;17.23;100.00;155788.09;5047356;28;20533;-75
2021/09/16 04:03:30;;;;;;;2.30;1.90;;;;;;;17.23;100.00;155788.09;5033798;28;20440;-74
2021/09/16 04:06:05;;;;;;;3.20;2.20;;;;;;;17.23;100.00;155789.41;5033971;28;20431;-75
2021/09/16 04:08:41;;;;;;;3.03;1.93;;;;;;;17.25;100.00;155793.28;5051526;28;20455;-74
2021/09/16 04:11:16;;;;;;;2.97;1.87;;;;;;;17.26;100.00;155795.91;5040582;28;20431;-75
2021/09/16 04:13:52;;;;;;;2.03;1.80;;;;;;;17.29;100.00;155803.72;5033392;28;20483;-75
2021/09/16 04:16:30;;;;;;;3.40;2.07;;;;;;;17.27;100.00;155799.78;5043956;28;20435;-75
2021/09/16 04:19:05;;;;;;;2.40;2.00;;;;;;;17.26;100.00;155795.91;5053195;28;20451;-75
2021/09/16 04:21:41;;;;;;;2.97;2.13;;;;;;;17.25;100.00;155793.28;5053207;28;20778;-74
2021/09/16 04:24:16;;;;;;;2.33;1.83;;;;;;;17.26;100.00;155797.16;5050542;28;20446;-74
2021/09/16 04:26:52;;;;;;;2.47;1.93;;;;;;;17.23;100.00;155788.09;5053625;28;20937;-74
2021/09/16 04:29:27;;;;;;;3.73;2.67;;;;;;;17.22;100.00;155786.78;5052798;28;20454;-74
2021/09/16 04:32:05;;;;;;;2.40;1.80;;;;;;;17.22;100.00;155786.78;5054348;28;20435;-74
2021/09/16 04:34:40;;;;;;;2.83;1.87;;;;;;;17.23;100.00;155789.41;5052302;28;20992;-74
2021/09/16 04:37:16;;;;;;;2.07;1.87;;;;;;;17.22;100.00;155786.78;5052147;28;20442;-74
2021/09/16 04:39:51;;;;;;;3.70;2.00;;;;;;;17.22;100.00;155785.47;5040635;28;20845;-74
2021/09/16 04:42:27;;;;;;;3.10;2.03;;;;;;;17.23;100.00;155788.09;5050560;28;20450;-74
2021/09/16 04:45:03;;;;;;;3.77;2.00;;;;;;;17.19;100.00;155778.97;5039846;28;20455;-74
2021/09/16 04:47:40;;;;;;;2.13;1.93;;;;;;;17.19;100.00;155778.97;5047159;28;20443;-74
2021/09/16 04:50:15;;;;;;;2.60;1.80;;;;;;;17.22;100.00;155785.47;5047545;28;20455;-74
2021/09/16 04:52:51;;;;;;;4.00;2.47;;;;;;;17.23;100.00;155788.09;5017004;28;20443;-74
2021/09/16 04:55:27;;;;;;;3.53;3.00;;;;;;;17.20;100.00;155781.59;5039922;28;20443;-74
2021/09/16 04:58:02;;;;;;;3.70;2.30;;;;;;;17.22;100.00;155785.47;5045008;28;20439;-74
2021/09/16 05:00:38;;;;;;;2.70;2.20;;;;;;;17.21;100.00;155782.91;5053385;28;20434;-75
2021/09/16 05:03:15;;;;;;;3.30;2.47;;;;;;;17.24;100.00;155790.66;5032716;28;20534;-74
2021/09/16 05:05:51;;;;;;;2.90;1.97;;;;;;;17.25;100.00;155794.59;5036697;28;20809;-74
2021/09/16 05:08:26;;;;;;;3.30;1.90;;;;;;;17.24;100.00;155791.97;5037332;28;20447;-80
2021/09/16 05:11:02;;;;;;;4.03;2.20;;;;;;;17.25;100.00;155793.28;5031258;28;20443;-80
2021/09/16 05:13:37;;;;;;;4.47;2.50;;;;;;;17.22;100.00;155785.47;5032552;28;20483;-81
2021/09/16 05:16:13;;;;;;;3.30;2.60;;;;;;;17.24;100.00;155790.66;5043186;28;20447;-80
2021/09/16 05:18:50;;;;;;;4.43;2.23;;;;;;;17.22;100.00;155786.78;5038978;28;20940;-81
2021/09/16 05:21:25;;;;;;;4.67;2.20;;;;;;;17.22;100.00;155785.47;5052857;28;20435;-81
2021/09/16 05:24:01;;;;;;;2.93;2.40;;;;;;;17.20;100.00;155781.59;5045236;28;20933;-81
2021/09/16 05:26:36;;;;;;;2.97;2.50;;;;;;;17.22;100.00;155785.47;5043683;28;20439;-81
2021/09/16 05:29:13;;;;;;;4.20;2.50;;;;;;;17.18;100.00;155776.41;5051621;28;20454;-81
2021/09/16 05:31:48;;;;;;;2.83;2.63;;;;;;;17.18;100.00;155776.41;5033272;28;20956;-81
2021/09/16 05:34:25;;;;;;;2.73;2.50;;;;;;;17.17;100.00;155772.47;5034396;28;20483;-81
2021/09/16 05:37:02;;;;;;;2.93;2.60;;;;;;;17.14;100.00;155765.97;5043526;28;20436;-81
2021/09/16 05:39:38;;;;;;;4.70;2.70;;;;;;;17.13;100.00;155763.34;5042301;28;20451;-81
2021/09/16 05:42:14;;;;;;;3.87;2.73;;;;;;;17.17;100.00;155772.47;5052621;28;20443;-81
2021/09/16 05:44:50;;;;;;;3.03;2.77;;;;;;;17.16;100.00;155769.84;5053803;28;20451;-81
2021/09/16 05:47:26;;;;;;;4.00;3.13;;;;;;;17.15;100.00;155768.59;5051350;28;20442;-81
2021/09/16 05:50:04;;;;;;;5.50;3.30;;;;;;;17.17;100.00;155772.47;5052256;28;20439;-81
2021/09/16 05:52:40;;;;;;;4.70;3.80;;;;;;;17.16;100.00;155769.84;5054444;28;20416;-81
2021/09/16 05:55:16;;;;;;;4.50;4.00;;;;;;;17.16;100.00;155769.84;5043747;28;20470;-81
2021/09/16 05:57:52;;;;;;;5.77;5.00;;;;;;;17.16;100.00;155771.16;5038148;28;20534;-81
2021/09/16 06:00:28;;;;;;;5.10;4.60;;;;;;;17.19;100.00;155778.97;5053124;28;20500;-81
2021/09/16 06:03:04;;;;;;;6.73;6.10;;;;;;;17.20;100.00;155780.28;5043351;28;20447;-81
2021/09/16 06:05:42;;;;;;;7.47;6.77;;;;;;;17.22;100.00;155785.47;5046906;28;20431;-81
2021/09/16 06:08:18;;;;;;;6.00;5.40;;;;;;;17.21;100.00;155784.16;5039653;28;20482;-81
2021/09/16 06:10:54;;;;;;;6.27;5.40;;;;;;;17.20;100.00;155780.28;5042694;28;20828;-82
2021/09/16 06:13:30;;;;;;;12.27;6.33;;;;;;;17.22;100.00;155785.47;5047314;28;20911;-75
2021/09/16 06:16:06;;;;;;;6.57;5.50;;;;;;;17.22;100.00;155785.47;5044930;28;20492;-75
2021/09/16 06:18:42;;;;;;;4.30;3.90;;;;;;;17.23;100.00;155789.41;5045552;28;20944;-74
2021/09/16 06:21:20;;;;;;;5.80;4.83;;;;;;;17.25;100.00;155793.28;5033544;28;20464;-74
2021/09/16 06:23:56;;;;;;;4.70;3.90;;;;;;;17.25;100.00;155794.59;5044838;28;20796;-74
2021/09/16 06:26:32;;;;;;;5.57;2.93;;;;;;;17.25;100.00;155794.59;5042817;28;20874;-74
2021/09/16 06:29:08;;;;;;;4.27;2.80;;;;;;;17.25;100.00;155793.28;5019383;28;20455;-74
2021/09/16 06:31:44;;;;;;;4.47;3.40;;;;;;;17.29;100.00;155803.72;5029835;28;20945;-74
2021/09/16 06:34:20;;;;;;;3.80;3.40;;;;;;;17.32;100.00;155811.50;5049068;28;20482;-74
2021/09/16 06:36:58;;;;;;;4.43;3.50;;;;;;;17.39;100.00;155831.06;5047172;28;20454;-74
2021/09/16 06:39:33;;;;;;;3.90;3.00;;;;;;;17.39;100.00;155829.75;5039453;28;20464;-74
2021/09/16 06:42:09;;;;;;;4.13;2.93;;;;;;;17.41;100.00;155834.94;5051614;28;20459;-74
2021/09/16 06:44:44;;;;;;;5.03;3.33;;;;;;;17.44;100.00;155842.75;5051241;28;20445;-74
2021/09/16 06:47:20;;;;;;;5.73;3.03;;;;;;;17.46;100.00;155847.94;5031329;28;20942;-74
2021/09/16 06:49:55;;;;;;;4.90;3.00;;;;;;;17.47;100.00;155851.84;5037577;28;20451;-74
2021/09/16 06:52:32;;;;;;;4.57;3.10;;;;;;;17.44;100.00;155842.75;5035741;28;20533;-74
2021/09/16 06:55:08;;;;;;;8.23;4.07;;;;;;;17.49;100.00;155855.78;5046537;28;20472;-74
2021/09/16 06:57:44;;;;;;;4.90;3.30;;;;;;;17.51;100.00;155860.97;5042575;28;20439;-75
2021/09/16 07:00:19;;;;;;;4.10;3.70;;;;;;;17.50;100.00;155858.38;5055228;28;20446;-74
2021/09/16 07:02:55;;;;;;;5.83;3.33;;;;;;;17.51;100.00;155862.28;5062844;28;20450;-74
2021/09/16 07:05:31;;;;;;;3.80;3.33;;;;;;;17.54;100.00;155868.84;5026681;28;20958;-74
2021/09/16 07:08:08;;;;;;;4.07;3.50;;;;;;;17.54;100.00;155868.84;5045986;28;20454;-74
2021/09/16 07:10:43;;;;;;;4.33;3.10;;;;;;;17.57;100.00;155876.66;5050624;28;20510;-74
2021/09/16 07:13:19;;;;;;;5.83;3.20;;;;;;;17.60;100.00;155884.47;5031026;28;20471;-74
2021/09/16 07:15:54;;;;;;;4.93;3.60;;;;;;;17.63;100.00;155893.53;5042878;28;20465;-74
2021/09/16 07:18:33;;;;;;;4.30;3.27;;;;;;;17.64;100.00;155896.16;5051156;28;20451;-74
2021/09/16 07:21:09;;;;;;;4.10;3.03;;;;;;;17.69;100.00;155906.56;5051293;28;20453;-74
2021/09/16 07:23:46;;;;;;;3.70;3.17;;;;;;;17.67;100.00;155901.38;5051818;28;20455;-74
2021/09/16 07:26:21;;;;;;;3.80;2.77;;;;;;;17.71;100.00;155913.13;5051962;28;20842;-74
2021/09/16 07:28:57;;;;;;;3.87;2.80;;;;;;;17.71;100.00;155913.13;5050875;28;20439;-74
2021/09/16 07:31:33;;;;;;;4.40;2.80;;;;;;;17.75;100.00;155922.19;5047530;28;20446;-74
2021/09/16 07:34:08;;;;;;;3.77;3.00;;;;;;;17.77;100.00;155928.69;5046515;28;20472;-74
2021/09/16 07:36:44;;;;;;;2.47;2.27;;;;;;;17.74;100.00;155920.88;5045586;28;20451;-75
2021/09/16 07:39:21;;;;;;;4.67;3.17;;;;;;;17.78;100.00;155931.31;5041661;28;20474;-74
2021/09/16 07:41:57;;;;;;;3.57;2.70;;;;;;;17.79;100.00;155933.91;5050257;28;20478;-75
2021/09/16 07:44:32;;;;;;;3.63;2.93;;;;;;;17.77;100.00;155927.38;5049638;28;20451;-75
2021/09/16 07:47:08;;;;;;;3.10;2.77;;;;;;;17.81;100.00;155937.84;5050328;28;20445;-75
2021/09/16 07:49:44;;;;;;;1.97;1.60;;;;;;;17.77;100.00;155928.69;5044093;28;20456;-75
2021/09/16 07:52:20;;;;;;;1.87;1.70;;;;;;;17.78;100.00;155931.31;5030750;28;20440;-75
2021/09/16 07:54:57;;;;;;;2.37;1.60;;;;;;;17.73;100.00;155917.00;5034025;28;20474;-74
2021/09/16 07:57:32;;;;;;;9.43;2.07;;;;;;;17.70;100.00;155909.19;5049619;28;20439;-75
2021/09/16 08:00:10;;;;;;;2.27;1.90;;;;;;;17.67;100.00;155902.69;5050483;28;20443;-74
2021/09/16 08:02:49;;;;;;;2.90;1.30;;;;;;;17.68;100.00;155905.28;5050988;28;20688;-75
2021/09/16 08:05:24;;;;;;;2.10;1.50;;;;;;;17.73;100.00;155918.31;5049447;28;20451;-75
2021/09/16 08:08:00;;;;;;;1.80;1.60;;;;;;;17.71;100.00;155911.81;5051410;28;20407;-75
2021/09/16 08:10:37;;;;;;;2.20;2.00;;;;;;;17.60;100.00;155885.78;5030213;28;20451;-74
2021/09/16 08:13:12;;;;;;;2.67;2.10;;;;;;;17.55;100.00;155871.47;5041525;28;20980;-74
2021/09/16 08:15:48;;;;;;;3.03;2.60;;;;;;;17.60;100.00;155885.78;5049972;28;20561;-74
2021/09/16 08:18:23;;;;;;;2.20;2.00;;;;;;;17.62;100.00;155889.66;5050043;28;20933;-74
2021/09/16 08:20:59;;;;;;;2.77;2.30;;;;;;;17.54;100.00;155868.84;5049083;28;20813;-74
2021/09/16 08:23:34;;;;;;;3.27;2.50;;;;;;;17.52;100.00;155863.59;5049980;28;20937;-74
2021/09/16 08:26:11;;;;;;;2.40;1.90;;;;;;;17.52;100.00;155863.59;5044938;28;20446;-74
2021/09/16 08:28:47;;;;;;;2.97;2.13;;;;;;;17.53;100.00;155866.22;5050932;28;20533;-75
2021/09/16 08:31:22;;;;;;;2.10;1.70;;;;;;;17.52;100.00;155863.59;5037398;28;20475;-74
2021/09/16 08:33:58;;;;;;;1.83;1.30;;;;;;;17.46;100.00;155847.94;5029726;28;20450;-75
2021/09/16 08:36:33;;;;;;;1.70;1.33;;;;;;;17.44;100.00;155842.75;5033908;28;20456;-75
2021/09/16 08:39:09;;;;;;;1.90;1.40;;;;;;;17.41;100.00;155834.94;5041063;28;20458;-74
2021/09/16 08:41:46;;;;;;;1.53;1.30;;;;;;;17.48;100.00;155854.47;5050717;28;20532;-74
2021/09/16 08:44:22;;;;;;;1.93;1.57;;;;;;;17.54;100.00;155868.84;5047813;28;20443;-74
2021/09/16 08:46:57;;;;;;;2.17;1.97;;;;;;;17.54;100.00;155868.84;5040713;28;20459;-74
2021/09/16 08:49:43;;;;;;;1.80;1.63;;;;;;;17.48;100.00;155853.16;5048042;28;20446;-75
2021/09/16 08:52:28;;;;;;;2.00;1.60;;;;;;;17.37;100.00;155825.81;5035877;28;20474;-74
2021/09/16 08:55:15;;;;;;;1.60;1.37;;;;;;;17.44;100.00;155844.06;5052593;28;20469;-75
2021/09/16 08:58:03;;;;;;;1.50;1.40;;;;;;;17.42;100.00;155838.81;5052919;28;21155;-75
2021/09/16 09:00:50;;;;;;;1.73;1.53;;;;;;;17.38;100.00;155827.13;5052116;28;20453;-74
2021/09/16 09:03:35;;;;;;;2.57;1.13;;;;;;;17.35;100.00;155819.31;5044770;28;20585;-75
2021/09/16 09:06:27;;;;;;;1.50;1.30;;;;;;;17.39;100.00;155829.75;5042995;28;20465;-75
2021/09/16 09:09:08;;;;;;;2.70;1.40;;;;;;;17.28;100.00;155802.41;5050323;28;20471;-74
2021/09/16 09:11:55;;;;;;;1.77;1.50;;;;;;;17.25;100.00;155793.28;5050574;28;20822;-74
2021/09/16 09:14:34;;;;;;;1.90;1.57;;;;;;;17.17;100.00;155772.47;5042560;28;20546;-75
2021/09/16 09:17:17;;;;;;;2.50;1.97;;;;;;;17.09;100.00;155752.94;5041786;28;20444;-75
2021/09/16 09:19:55;;;;;;;3.93;3.57;;;;;;;17.04;100.00;155741.25;5051918;28;20438;-74
2021/09/16 09:22:36;;;;;;;7.10;3.63;;;;;;;16.96;100.00;155720.44;5047226;28;20483;-74
2021/09/16 09:25:13;;;;;;;4.77;4.20;;;;;;;16.95;100.00;155717.81;5049864;28;20447;-74
2021/09/16 09:27:50;;;;;;;4.70;3.97;;;;;;;16.88;100.00;155698.31;5047274;28;21083;-74
2021/09/16 09:30:30;;;;;;;6.97;6.13;;;;;;;16.78;100.00;155673.59;5051748;28;20949;-75
2021/09/16 09:33:06;;;;;;;5.83;5.27;;;;;;;16.82;100.00;155684.00;5052410;28;20435;-74
2021/09/16 09:35:45;;;;;;;7.03;6.10;;;;;;;16.73;100.00;155660.53;5030996;28;20493;-74
2021/09/16 09:38:22;;;;;;;7.93;7.23;;;;;;;16.77;100.00;155670.97;5043456;28;20754;-74
2021/09/16 09:41:00;;;;;;;7.20;6.50;;;;;;;16.65;100.00;155639.78;5046453;28;20434;-74
2021/09/16 09:43:37;;;;;;;7.37;6.60;;;;;;;16.64;100.00;155637.16;5046879;28;20451;-74
2021/09/16 09:46:15;;;;;;;10.93;7.13;;;;;;;16.59;100.00;155622.84;5037178;28;20454;-74
2021/09/16 09:49:00;;;;;;;7.60;6.80;;;;;;;16.61;100.00;155628.03;5050940;28;20542;-74
2021/09/16 09:51:37;;;;;;;7.27;6.57;;;;;;;16.59;100.00;155622.84;5047597;28;21126;-74
2021/09/16 09:54:18;;;;;;;6.20;5.57;;;;;;;16.36;100.00;155564.28;5049666;28;20458;-74
2021/09/16 09:57:09;;;;;;;6.73;5.97;;;;;;;16.44;100.00;155585.09;5046643;28;20482;-74
2021/09/16 10:00:00;;;;;;;6.80;6.10;;;;;;;16.47;100.00;155591.59;5033376;28;20526;-74
2021/09/16 10:02:50;;;;;;;6.30;5.53;;;;;;;16.49;100.00;155598.09;5034228;28;20456;-74
2021/09/16 10:05:27;;;;;;;7.50;6.37;;;;;;;16.56;100.00;155615.03;5034378;28;20450;-74
2021/09/16 10:08:11;;;;;;;7.40;6.00;;;;;;;16.59;100.00;155624.16;5042705;28;20452;-74
2021/09/16 10:10:49;;;;;;;7.63;6.83;;;;;;;16.59;100.00;155624.16;5050336;28;20439;-74
2021/09/16 10:13:25;;;;;;;6.40;5.80;;;;;;;16.61;100.00;155628.03;5051196;28;20463;-74
2021/09/16 10:16:04;;;;;;;7.10;6.13;;;;;;;16.53;100.00;155608.53;5049465;28;20520;-74
2021/09/16 10:18:41;;;;;;;7.40;6.23;;;;;;;16.50;100.00;155600.66;5056566;28;20440;-74
2021/09/16 10:21:19;;;;;;;8.23;7.43;;;;;;;16.54;100.00;155609.84;5048884;28;20841;-74
2021/09/16 10:23:55;;;;;;;8.40;7.47;;;;;;;16.47;100.00;155592.88;5051222;28;20439;-74
2021/09/16 10:26:34;;;;;;;13.47;8.27;;;;;;;16.48;100.00;155595.47;5047504;28;20439;-74
2021/09/16 10:29:33;;;;;;;9.70;8.00;;;;;;;16.43;100.00;155583.78;5035458;28;20946;-74
2021/09/16 10:32:37;;;;;;;11.73;9.37;;;;;;;16.45;100.00;155587.66;5045900;28;20842;-74
2021/09/16 10:35:20;;;;;;;11.20;9.20;;;;;;;16.52;100.00;155605.88;5048579;28;20570;-74
2021/09/16 10:37:56;;;;;;;11.20;9.43;;;;;;;16.57;100.00;155618.97;5045091;28;20431;-74
2021/09/16 10:40:33;;;;;;;12.40;9.20;;;;;;;16.54;100.00;155611.16;5048022;28;20561;-74
2021/09/16 10:43:08;;;;;;;11.57;9.10;;;;;;;16.59;100.00;155624.16;5051571;28;20522;-74
2021/09/16 10:45:44;;;;;;;10.70;9.50;;;;;;;16.63;100.00;155634.53;5035948;28;20844;-74
2021/09/16 10:48:32;;;;;;;10.93;9.03;;;;;;;16.62;100.00;155630.66;5036612;28;20946;-74
2021/09/16 10:51:09;;;;;;;11.83;10.00;;;;;;;16.64;100.00;155635.84;5034414;28;20865;-74
2021/09/16 10:53:46;;;;;;;10.57;9.43;;;;;;;16.61;100.00;155628.03;5050214;28;20446;-74
2021/09/16 10:56:40;;;;;;;11.43;9.33;;;;;;;16.58;100.00;155620.22;5051257;28;20863;-74
2021/09/16 10:59:17;;;;;;;13.10;10.20;;;;;;;16.54;100.00;155611.16;5050712;28;20487;-74
2021/09/16 11:01:58;;;;;;;12.90;10.70;;;;;;;16.59;100.00;155624.16;5050950;28;20447;-74
2021/09/16 11:05:07;;;;;;;13.23;9.93;;;;;;;16.53;100.00;155608.53;5049941;28;20559;-74
2021/09/16 11:07:56;;;;;;;15.60;9.87;;;;;;;16.59;100.00;155622.84;5051355;28;20753;-74
2021/09/16 11:10:53;;;;;;;11.93;9.67;;;;;;;16.65;100.00;155639.78;5049775;28;20490;-74
2021/09/16 11:13:32;;;;;;;11.67;9.80;;;;;;;16.64;100.00;155635.84;5032555;28;20467;-74
2021/09/16 11:16:08;;;;;;;15.27;12.33;;;;;;;16.63;100.00;155633.22;5050851;28;21001;-74
2021/09/16 11:18:46;;;;;;;13.53;10.40;;;;;;;16.58;100.00;155620.22;5051729;28;20443;-74
2021/09/16 11:21:21;;;;;;;14.53;11.30;;;;;;;16.54;100.00;155609.84;5045839;28;20443;-74
2021/09/16 11:23:58;;;;;;;14.30;11.90;;;;;;;16.60;100.00;155625.47;5052151;28;20455;-74
2021/09/16 11:26:34;;;;;;;15.87;11.50;;;;;;;16.62;100.00;155631.97;5070852;28;20476;-74
2021/09/16 11:29:10;;;;;;;16.13;10.77;;;;;;;16.62;100.00;155631.97;5053447;28;20885;-74
2021/09/16 11:31:45;;;;;;;13.73;12.20;;;;;;;16.63;100.00;155634.53;5039765;28;20439;-74
2021/09/16 11:34:21;;;;;;;16.07;13.10;;;;;;;16.62;100.00;155630.66;5039403;28;20462;-74
2021/09/16 11:37:09;;;;;;;14.00;12.43;;;;;;;16.59;100.00;155622.84;5031047;28;20471;-74
2021/09/16 11:39:57;;;;;;;17.63;13.03;;;;;;;16.60;100.00;155625.47;5046591;28;20463;-74
2021/09/16 11:42:34;;;;;;;15.70;13.40;;;;;;;16.63;100.00;155634.53;5015137;28;20435;-74
2021/09/16 11:45:13;;;;;;;13.30;11.90;;;;;;;16.66;100.00;155641.03;5036119;28;20905;-74
2021/09/16 11:47:51;;;;;;;15.43;11.70;;;;;;;16.66;100.00;155642.34;5049286;28;20439;-74
2021/09/16 11:50:30;;;;;;;15.97;12.93;;;;;;;16.70;100.00;155651.47;5041066;28;20451;-74
2021/09/16 11:53:08;;;;;;;17.67;12.73;;;;;;;16.60;100.00;155625.47;5021408;28;20464;-74
2021/09/16 11:55:47;;;;;;;14.90;11.60;;;;;;;16.59;100.00;155624.16;5047910;28;20466;-74
2021/09/16 11:58:23;;;;;;;14.17;11.00;;;;;;;16.64;100.00;155635.84;5049474;28;20435;-74
2021/09/16 12:01:00;;;;;;;14.97;10.77;;;;;;;16.68;100.00;155647.53;5051038;28;20904;-74